ESNN/SDL METAR and TAF weather

Enter ICAO airport designator
Station Type Date Time Source
ESNN METAR 2020/10/22 02:50 UTC NOAA

ESNN 220250Z AUTO 32006KT 9999 -RA FEW037/// BKN059/// OVC072/// 04/03 Q0997 REDZ


Station Type Date Time Source
ESNN Decoded METAR 2020/10/22 02:50 UTC NOAA

Sundsvall-Harnosand Flygplats, Sweden (ESNN) 62-32N 017-27E 10M
Oct 21, 2020 - 10:50 PM EDT / 2020.10.22 0250 UTC
Wind: from the NW (320 degrees) at 7 MPH (6 KT):0
Visibility: greater than 7 mile(s):0
Sky conditions: overcast
Weather: light rain
Temperature: 39 F (4 C)
Dew Point: 37 F (3 C)
Relative Humidity: 93%
Pressure (altimeter): 29.44 in. Hg (0997 hPa)
ob: ESNN 220250Z AUTO 32006KT 9999 -RA FEW037/// BKN059/// OVC072/// 04/03 Q0997 REDZ
cycle: 3

Station Type Date Time Source
ESNN TAF 2016/05/29 09:33 UTC NOAA

TAF TAF ESNN 290830Z 2909/3018 07006KT 9999 SCT045
BECMG 2913/2915 14010KT

Example: see airport list